createdAt,value
2016-08-22T00:00:32.121Z,0
2016-08-22T00:01:32.145Z,0
2016-08-22T00:02:32.182Z,0
2016-08-22T00:04:02.057Z,0
2016-08-22T00:04:32.222Z,0
2016-08-22T00:05:32.242Z,0
2016-08-22T00:06:32.275Z,0
2016-08-22T00:07:32.292Z,0
2016-08-22T00:08:33.018Z,0
2016-08-22T00:09:32.348Z,0
2016-08-22T00:10:32.365Z,0
2016-08-22T00:11:32.400Z,0
2016-08-22T00:12:32.435Z,0
2016-08-22T00:13:32.440Z,0
2016-08-22T00:15:02.317Z,0
2016-08-22T00:15:47.419Z,0
2016-08-22T00:16:32.515Z,0
2016-08-22T00:17:32.549Z,0
2016-08-22T00:18:47.547Z,0
2016-08-22T00:19:32.600Z,0
2016-08-22T00:20:32.631Z,0
2016-08-22T00:21:32.694Z,0
2016-08-22T00:22:32.677Z,0
2016-08-22T00:23:32.688Z,0
2016-08-22T00:24:32.718Z,0
2016-08-22T00:25:32.758Z,0
2016-08-22T00:26:32.765Z,0
2016-08-22T00:27:32.789Z,0
2016-08-22T00:28:32.821Z,0
2016-08-22T00:31:02.717Z,0
2016-08-22T00:31:32.899Z,0
2016-08-22T00:32:32.920Z,0
2016-08-22T00:33:32.942Z,0
2016-08-22T00:34:32.971Z,0
2016-08-22T00:35:32.997Z,0
2016-08-22T00:36:33.012Z,0
2016-08-22T00:37:33.049Z,0
2016-08-22T00:38:33.765Z,0
2016-08-22T00:39:48.017Z,0
2016-08-22T00:41:33.140Z,0
2016-08-22T00:42:33.170Z,0
2016-08-22T00:43:33.207Z,0
2016-08-22T00:44:33.217Z,0
2016-08-22T00:45:48.164Z,0
2016-08-22T00:46:33.274Z,0
2016-08-22T00:47:33.344Z,0
2016-08-22T00:48:33.317Z,0
2016-08-22T00:49:33.348Z,0
2016-08-22T00:50:33.360Z,0
2016-08-22T00:51:33.396Z,0
2016-08-22T00:52:33.414Z,0
2016-08-22T00:53:34.155Z,0
2016-08-22T00:54:49.090Z,0
2016-08-22T00:55:48.414Z,0
2016-08-22T00:56:48.441Z,0
2016-08-22T00:57:48.471Z,0
2016-08-22T00:58:48.488Z,0
2016-08-22T00:59:33.590Z,0
2016-08-22T01:00:33.629Z,0
2016-08-22T01:01:33.650Z,0
2016-08-22T01:02:33.677Z,0
2016-08-22T01:03:33.691Z,0
2016-08-22T01:05:48.668Z,0
2016-08-22T01:06:34.461Z,0
2016-08-22T01:07:33.805Z,0
2016-08-22T01:08:33.822Z,0
2016-08-22T01:09:33.846Z,0
2016-08-22T01:12:33.919Z,0
2016-08-22T01:13:33.940Z,0
2016-08-22T01:14:33.975Z,0
2016-08-22T01:15:48.912Z,0
2016-08-22T01:16:34.004Z,0
2016-08-22T01:17:48.960Z,0
2016-08-22T01:18:34.077Z,0
2016-08-22T01:19:34.150Z,0
2016-08-22T01:20:34.111Z,0
2016-08-22T01:21:34.151Z,0
2016-08-22T01:22:34.166Z,0
2016-08-22T01:23:34.183Z,0
2016-08-22T01:24:34.206Z,0
2016-08-22T01:25:34.230Z,0
2016-08-22T01:26:34.260Z,0
2016-08-22T01:27:34.338Z,0
2016-08-22T01:28:34.335Z,0
2016-08-22T01:29:34.338Z,0
2016-08-22T01:30:49.283Z,0
2016-08-22T01:31:34.394Z,0
2016-08-22T01:32:49.333Z,0
2016-08-22T01:33:49.353Z,0
2016-08-22T01:34:34.463Z,0
2016-08-22T01:35:34.492Z,0
2016-08-22T01:37:34.529Z,0
2016-08-22T01:38:34.564Z,0
2016-08-22T01:39:34.585Z,0
2016-08-22T01:41:34.630Z,0
2016-08-22T01:42:49.580Z,0
2016-08-22T01:43:34.690Z,0
2016-08-22T01:44:34.709Z,0
2016-08-22T01:45:49.655Z,0
2016-08-22T01:46:34.757Z,0
2016-08-22T01:47:34.780Z,0
2016-08-22T01:48:34.818Z,0
2016-08-22T01:49:49.750Z,0
2016-08-22T01:51:34.885Z,0
2016-08-22T01:52:34.906Z,0
2016-08-22T01:53:34.928Z,0
2016-08-22T01:54:34.959Z,0
2016-08-22T01:55:34.983Z,0
2016-08-22T01:56:49.930Z,0
2016-08-22T01:57:35.034Z,0
2016-08-22T01:58:49.978Z,0
2016-08-22T01:59:35.079Z,0
2016-08-22T02:00:35.805Z,0
2016-08-22T02:01:35.119Z,0
2016-08-22T02:02:35.162Z,0
2016-08-22T02:03:35.194Z,0
2016-08-22T02:04:35.205Z,0
2016-08-22T02:05:50.157Z,0
2016-08-22T02:06:50.188Z,0
2016-08-22T02:07:35.287Z,0
2016-08-22T02:08:50.233Z,0
2016-08-22T02:09:35.344Z,0
2016-08-22T02:10:35.402Z,0
2016-08-22T02:11:35.376Z,0
2016-08-22T02:12:50.330Z,0
2016-08-22T02:13:35.429Z,0
2016-08-22T02:16:35.497Z,0
2016-08-22T02:17:50.464Z,0
2016-08-22T02:19:05.402Z,0
2016-08-22T02:19:35.597Z,0
2016-08-22T02:21:05.449Z,0
2016-08-22T02:21:50.549Z,0
2016-08-22T02:22:35.709Z,0
2016-08-22T02:23:35.686Z,0
2016-08-22T02:24:35.696Z,0
2016-08-22T02:25:35.724Z,0
2016-08-22T02:26:35.753Z,0
2016-08-22T02:27:35.770Z,0
2016-08-22T02:28:35.849Z,0
2016-08-22T02:29:36.509Z,0
2016-08-22T02:30:50.776Z,0
2016-08-22T02:31:36.574Z,0
2016-08-22T02:32:35.903Z,0
2016-08-22T02:33:50.848Z,0
2016-08-22T02:34:35.959Z,0
2016-08-22T02:35:35.978Z,0
2016-08-22T02:36:36.004Z,0
2016-08-22T02:37:50.947Z,0
2016-08-22T02:38:36.049Z,0
2016-08-22T02:39:36.076Z,0
2016-08-22T02:40:36.097Z,0
2016-08-22T02:41:36.117Z,0
2016-08-22T02:42:36.155Z,0
2016-08-22T02:43:36.169Z,0
2016-08-22T02:44:36.186Z,0
2016-08-22T02:45:36.223Z,0
2016-08-22T02:46:36.242Z,0
2016-08-22T02:47:51.187Z,0
2016-08-22T02:48:36.288Z,0
2016-08-22T02:49:36.322Z,0
2016-08-22T02:50:36.388Z,0
2016-08-22T02:51:36.369Z,0
2016-08-22T02:52:51.317Z,0
2016-08-22T02:53:36.415Z,0
2016-08-22T02:54:36.447Z,0
2016-08-22T02:55:36.467Z,0
2016-08-22T02:56:36.484Z,0
2016-08-22T02:57:36.526Z,0
2016-08-22T02:58:36.548Z,0
2016-08-22T02:59:36.560Z,0
2016-08-22T03:00:36.599Z,0
2016-08-22T03:01:36.625Z,0
2016-08-22T03:02:36.642Z,0
2016-08-22T03:03:36.666Z,0
2016-08-22T03:04:36.694Z,0
2016-08-22T03:05:36.723Z,0
2016-08-22T03:06:36.747Z,0
2016-08-22T03:07:36.773Z,0
2016-08-22T03:08:51.716Z,0
2016-08-22T03:09:36.821Z,0
2016-08-22T03:10:36.840Z,0
2016-08-22T03:11:36.863Z,0
2016-08-22T03:12:51.811Z,0
2016-08-22T03:13:36.930Z,0
2016-08-22T03:14:36.940Z,0
2016-08-22T03:15:36.969Z,0
2016-08-22T03:16:36.976Z,0
2016-08-22T03:17:37.003Z,0
2016-08-22T03:18:51.966Z,0
2016-08-22T03:19:37.060Z,0
2016-08-22T03:20:37.089Z,0
2016-08-22T03:21:52.032Z,0
2016-08-22T03:22:52.071Z,0
2016-08-22T03:23:37.202Z,0
2016-08-22T03:24:52.113Z,0
2016-08-22T03:25:37.205Z,0
2016-08-22T03:26:37.232Z,0
2016-08-22T03:27:37.957Z,0
2016-08-22T03:28:37.282Z,0
2016-08-22T03:29:37.304Z,0
2016-08-22T03:30:37.346Z,0
2016-08-22T03:31:37.403Z,0
2016-08-22T03:32:37.373Z,0
2016-08-22T03:33:37.399Z,0
2016-08-22T03:34:37.425Z,0
2016-08-22T03:35:37.451Z,0
2016-08-22T03:36:37.473Z,0
2016-08-22T03:37:52.424Z,0
2016-08-22T03:38:38.221Z,0
2016-08-22T03:40:52.504Z,0
2016-08-22T03:41:37.606Z,0
2016-08-22T03:43:37.651Z,0
2016-08-22T03:44:37.674Z,0
2016-08-22T03:45:37.704Z,0
2016-08-22T03:46:52.647Z,0
2016-08-22T03:47:37.743Z,0
2016-08-22T03:48:37.776Z,0
2016-08-22T03:49:37.798Z,0
2016-08-22T03:50:37.870Z,0
2016-08-22T03:51:37.840Z,0
2016-08-22T03:52:52.806Z,0
2016-08-22T03:53:52.834Z,0
2016-08-22T03:54:37.908Z,0
2016-08-22T03:55:52.871Z,0
2016-08-22T03:56:52.889Z,0
2016-08-22T03:57:37.992Z,0
2016-08-22T03:58:38.038Z,0
2016-08-22T03:59:38.053Z,0
2016-08-22T04:00:38.069Z,0
2016-08-22T04:01:38.088Z,0
2016-08-22T04:02:38.129Z,0
2016-08-22T04:03:38.145Z,0
2016-08-22T04:04:38.163Z,0
2016-08-22T04:05:38.204Z,0
2016-08-22T04:06:38.212Z,0
2016-08-22T04:07:38.240Z,0
2016-08-22T04:08:38.270Z,0
2016-08-22T04:09:38.298Z,0
2016-08-22T04:10:38.309Z,0
2016-08-22T04:11:38.339Z,0
2016-08-22T04:12:53.294Z,0
2016-08-22T04:13:38.386Z,0
2016-08-22T04:14:53.338Z,0
2016-08-22T04:15:38.441Z,0
2016-08-22T04:16:38.463Z,0
2016-08-22T04:17:38.506Z,0
2016-08-22T04:18:38.511Z,0
2016-08-22T04:19:38.533Z,0
2016-08-22T04:20:38.561Z,0
2016-08-22T04:21:38.585Z,5
2016-08-22T04:22:38.603Z,5
2016-08-22T04:23:53.559Z,5
2016-08-22T04:24:38.660Z,5
2016-08-22T04:25:38.679Z,5
2016-08-22T04:26:38.765Z,5
2016-08-22T04:27:53.660Z,5
2016-08-22T04:28:38.758Z,5
2016-08-22T04:29:38.840Z,5
2016-08-22T04:30:38.808Z,10
2016-08-22T04:31:38.832Z,10
2016-08-22T04:33:38.887Z,10
2016-08-22T04:34:38.916Z,10
2016-08-22T04:35:38.984Z,10
2016-08-22T04:36:38.967Z,10
2016-08-22T04:37:53.900Z,10
2016-08-22T04:38:53.933Z,10
2016-08-22T04:39:53.958Z,10
2016-08-22T04:40:39.062Z,10
2016-08-22T04:41:54.015Z,10
2016-08-22T04:42:39.805Z,10
2016-08-22T04:45:09.000Z,15
2016-08-22T04:45:39.182Z,15
2016-08-22T04:46:39.209Z,15
2016-08-22T04:47:39.222Z,15
2016-08-22T04:48:39.255Z,15
2016-08-22T04:49:39.277Z,15
2016-08-22T04:50:39.302Z,15
2016-08-22T04:51:39.382Z,15
2016-08-22T04:52:39.353Z,15
2016-08-22T04:53:39.371Z,15
2016-08-22T04:54:39.406Z,15
2016-08-22T04:55:40.130Z,15
2016-08-22T04:57:39.483Z,20
2016-08-22T04:58:54.425Z,20
2016-08-22T04:59:54.444Z,20
2016-08-22T05:00:39.554Z,20
2016-08-22T05:01:39.573Z,25
2016-08-22T05:02:39.605Z,25
2016-08-22T05:03:39.623Z,25
2016-08-22T05:04:39.657Z,30
2016-08-22T05:05:39.674Z,35
2016-08-22T05:06:39.698Z,35
2016-08-22T05:08:39.762Z,40
2016-08-22T05:09:39.766Z,40
2016-08-22T05:10:39.801Z,45
2016-08-22T05:11:39.836Z,45
2016-08-22T05:12:39.848Z,45
2016-08-22T05:13:39.875Z,45
2016-08-22T05:15:54.855Z,40
2016-08-22T05:16:54.887Z,45
2016-08-22T05:17:39.979Z,45
2016-08-22T05:18:40.006Z,45
2016-08-22T05:20:40.056Z,45
2016-08-22T05:21:40.081Z,45
2016-08-22T05:22:40.100Z,45
2016-08-22T05:23:40.125Z,50
2016-08-22T05:24:40.153Z,50
2016-08-22T05:25:40.171Z,60
2016-08-22T05:27:40.274Z,70
2016-08-22T05:29:10.103Z,85
2016-08-22T05:29:40.272Z,95
2016-08-22T05:31:10.153Z,110
2016-08-22T05:31:40.338Z,120
2016-08-22T05:32:55.283Z,135
2016-08-22T05:33:40.381Z,145
2016-08-22T05:34:40.396Z,150
2016-08-22T05:35:55.360Z,155
2016-08-22T05:36:40.453Z,145
2016-08-22T05:37:40.478Z,145
2016-08-22T05:38:40.578Z,145
2016-08-22T05:39:40.530Z,150
2016-08-22T05:40:55.533Z,145
2016-08-22T05:41:40.589Z,150
2016-08-22T05:42:41.305Z,150
2016-08-22T05:43:40.625Z,150
2016-08-22T05:46:40.712Z,175
2016-08-22T05:47:55.655Z,195
2016-08-22T05:48:40.758Z,205
2016-08-22T05:49:40.790Z,150
2016-08-22T05:50:40.830Z,150
2016-08-22T05:51:40.834Z,185
2016-08-22T05:52:40.911Z,260
2016-08-22T05:53:40.902Z,405
2016-08-22T05:54:40.911Z,190
2016-08-22T05:55:40.941Z,170
2016-08-22T05:56:55.891Z,165
2016-08-22T05:58:10.845Z,145
2016-08-22T05:59:41.036Z,115
2016-08-22T06:00:41.069Z,100
2016-08-22T06:01:41.094Z,95
2016-08-22T06:02:56.044Z,95
2016-08-22T06:03:41.156Z,100
2016-08-22T06:04:41.178Z,95
2016-08-22T06:05:41.202Z,95
2016-08-22T06:06:41.233Z,125
2016-08-22T06:07:41.254Z,135
2016-08-22T06:08:41.272Z,130
2016-08-22T06:10:41.334Z,100
2016-08-22T06:11:41.373Z,110
2016-08-22T06:12:41.385Z,115
2016-08-22T06:13:41.411Z,130
2016-08-22T06:14:41.440Z,145
2016-08-22T06:15:57.083Z,185
2016-08-22T06:17:41.520Z,225
2016-08-22T06:18:56.464Z,280
2016-08-22T06:19:41.575Z,280
2016-08-22T06:22:41.640Z,655
2016-08-22T06:23:56.597Z,545
2016-08-22T06:24:56.623Z,425
2016-08-22T06:25:41.735Z,1090
2016-08-22T06:26:41.767Z,1030
2016-08-22T06:27:41.767Z,920
2016-08-22T06:28:56.744Z,1030
2016-08-22T06:29:41.834Z,780
2016-08-22T06:30:56.785Z,370
2016-08-22T06:31:41.895Z,290
2016-08-22T06:33:41.993Z,255
2016-08-22T06:34:56.909Z,205
2016-08-22T06:35:42.014Z,190
2016-08-22T06:36:42.039Z,180
2016-08-22T06:37:42.070Z,180
2016-08-22T06:38:42.091Z,155
2016-08-22T06:39:42.121Z,145
2016-08-22T06:40:42.206Z,130
2016-08-22T06:41:42.225Z,130
2016-08-22T06:42:42.218Z,135
2016-08-22T06:43:57.157Z,135
2016-08-22T06:44:42.267Z,130
2016-08-22T06:45:42.295Z,125
2016-08-22T06:46:57.943Z,115
2016-08-22T06:47:57.274Z,110
2016-08-22T06:48:42.387Z,95
2016-08-22T06:49:42.402Z,100
2016-08-22T06:50:57.359Z,105
2016-08-22T06:51:42.467Z,100
2016-08-22T06:52:42.493Z,110
2016-08-22T06:53:42.528Z,125
2016-08-22T06:54:42.558Z,130
2016-08-22T06:55:42.569Z,145
2016-08-22T06:56:42.606Z,190
2016-08-22T06:57:42.627Z,250
2016-08-22T06:58:42.663Z,465
2016-08-22T06:59:42.689Z,235
2016-08-22T07:00:42.736Z,255
2016-08-22T07:01:42.731Z,220
2016-08-22T07:02:43.463Z,250
2016-08-22T07:03:57.720Z,320
2016-08-22T07:04:42.822Z,245
2016-08-22T07:05:57.771Z,175
2016-08-22T07:06:57.797Z,225
2016-08-22T07:07:42.905Z,150
2016-08-22T07:08:42.934Z,110
2016-08-22T07:09:42.961Z,145
2016-08-22T07:10:42.983Z,160
2016-08-22T07:11:43.014Z,145
2016-08-22T07:12:43.048Z,165
2016-08-22T07:14:43.094Z,350
2016-08-22T07:15:43.121Z,225
2016-08-22T07:16:43.160Z,295
2016-08-22T07:17:43.174Z,330
2016-08-22T07:18:43.208Z,355
2016-08-22T07:19:43.250Z,255
2016-08-22T07:21:43.298Z,405
2016-08-22T07:23:43.335Z,700
2016-08-22T07:25:43.401Z,325
2016-08-22T07:26:43.428Z,245
2016-08-22T07:27:43.467Z,235
2016-08-22T07:28:58.408Z,255
2016-08-22T07:29:43.519Z,155
2016-08-22T07:30:43.543Z,155
2016-08-22T07:31:43.571Z,180
2016-08-22T07:32:43.607Z,1140
2016-08-22T07:33:58.553Z,240
2016-08-22T07:34:58.579Z,245
2016-08-22T07:35:58.659Z,215
2016-08-22T07:37:58.663Z,205
2016-08-22T07:38:43.777Z,210
2016-08-22T07:39:43.810Z,200
2016-08-22T07:40:43.825Z,175
2016-08-22T07:41:43.910Z,140
2016-08-22T07:42:43.886Z,130
2016-08-22T07:43:43.920Z,130
2016-08-22T07:44:43.961Z,135
2016-08-22T07:45:44.021Z,135
2016-08-22T07:46:44.011Z,120
2016-08-22T07:47:44.031Z,115
2016-08-22T07:48:44.052Z,110
2016-08-22T07:49:44.126Z,115
2016-08-22T07:50:44.126Z,110
2016-08-22T07:51:44.139Z,110
2016-08-22T07:52:44.171Z,130
2016-08-22T07:53:59.122Z,150
2016-08-22T07:54:44.241Z,180
2016-08-22T07:55:44.264Z,645
2016-08-22T07:56:44.283Z,435
2016-08-22T07:57:44.309Z,1080
2016-08-22T07:58:44.337Z,1085
2016-08-22T07:59:44.373Z,1050
2016-08-22T08:00:44.405Z,350
2016-08-22T08:01:59.357Z,230
2016-08-22T08:02:44.447Z,195
2016-08-22T08:03:44.490Z,160
2016-08-22T08:04:44.507Z,150
2016-08-22T08:05:44.535Z,160
2016-08-22T08:06:59.495Z,220
2016-08-22T08:07:44.599Z,205
2016-08-22T08:08:45.326Z,250
2016-08-22T08:09:59.578Z,955
2016-08-22T08:10:44.696Z,960
2016-08-22T08:11:44.714Z,905
2016-08-22T08:12:44.742Z,985
2016-08-22T08:13:44.774Z,980
2016-08-22T08:14:44.801Z,735
2016-08-22T08:15:44.834Z,395
2016-08-22T08:16:59.789Z,340
2016-08-22T08:17:44.899Z,290
2016-08-22T08:18:44.921Z,260
2016-08-22T08:19:44.954Z,255
2016-08-22T08:20:44.987Z,245
2016-08-22T08:22:59.983Z,190
2016-08-22T08:23:45.079Z,180
2016-08-22T08:24:45.118Z,715
2016-08-22T08:26:00.076Z,825
2016-08-22T08:26:45.177Z,750
2016-08-22T08:27:45.224Z,285
2016-08-22T08:28:45.238Z,280
2016-08-22T08:29:45.269Z,240
2016-08-22T08:30:45.297Z,215
2016-08-22T08:31:45.324Z,220
2016-08-22T08:32:45.353Z,220
2016-08-22T08:33:45.390Z,255
2016-08-22T08:34:45.426Z,255
2016-08-22T08:35:45.453Z,230
2016-08-22T08:38:00.437Z,690
2016-08-22T08:38:45.538Z,660
2016-08-22T08:39:45.589Z,685
2016-08-22T08:41:00.577Z,580
2016-08-22T08:42:00.563Z,225
2016-08-22T08:42:45.710Z,220
2016-08-22T08:43:45.713Z,260
2016-08-22T08:44:45.728Z,660
2016-08-22T08:46:00.683Z,635
2016-08-22T08:47:01.412Z,650
2016-08-22T08:47:45.820Z,555
2016-08-22T08:49:00.778Z,640
2016-08-22T08:50:45.924Z,615
2016-08-22T08:51:45.945Z,610
2016-08-22T08:52:45.972Z,615
2016-08-22T08:54:00.933Z,595
2016-08-22T08:54:46.048Z,570
2016-08-22T08:56:00.994Z,590
2016-08-22T08:56:46.101Z,320
2016-08-22T08:57:46.132Z,365
2016-08-22T08:58:46.165Z,335
2016-08-22T08:59:46.211Z,300
2016-08-22T09:00:46.243Z,235
2016-08-22T09:01:46.265Z,200
2016-08-22T09:02:46.307Z,165
2016-08-22T09:03:46.337Z,150
2016-08-22T09:04:46.375Z,140
2016-08-22T09:05:46.399Z,130
2016-08-22T09:07:01.371Z,130
2016-08-22T09:08:01.390Z,445
2016-08-22T09:08:46.501Z,175
2016-08-22T09:10:01.451Z,260
2016-08-22T09:10:46.553Z,215
2016-08-22T09:11:46.591Z,190
2016-08-22T09:13:01.551Z,190
2016-08-22T09:13:46.650Z,185
2016-08-22T09:14:46.683Z,185
2016-08-22T09:16:46.748Z,180
2016-08-22T09:17:46.779Z,200
2016-08-22T09:18:46.809Z,255
2016-08-22T09:19:46.841Z,375
2016-08-22T09:20:46.862Z,250
2016-08-22T09:21:46.900Z,230
2016-08-22T09:23:01.854Z,220
2016-08-22T09:23:46.953Z,240
2016-08-22T09:24:46.995Z,290
2016-08-22T09:25:47.026Z,510
2016-08-22T09:27:01.984Z,365
2016-08-22T09:27:47.081Z,270
2016-08-22T09:29:02.044Z,250
2016-08-22T09:30:02.068Z,255
2016-08-22T09:30:47.181Z,310
2016-08-22T09:31:47.215Z,435
2016-08-22T09:32:47.241Z,430
2016-08-22T09:33:47.269Z,270
2016-08-22T09:35:02.225Z,235
2016-08-22T09:35:47.331Z,265
2016-08-22T09:36:47.361Z,255
2016-08-22T09:37:47.402Z,225
2016-08-22T09:38:47.433Z,215
2016-08-22T09:39:47.447Z,205
2016-08-22T09:40:47.494Z,205
2016-08-22T09:41:47.522Z,200
2016-08-22T09:42:47.551Z,190
2016-08-22T09:43:47.592Z,185
2016-08-22T09:45:02.539Z,195
2016-08-22T09:45:47.634Z,325
2016-08-22T09:46:47.670Z,365
2016-08-22T09:47:47.708Z,230
2016-08-22T09:48:47.727Z,220
2016-08-22T09:49:48.845Z,280
2016-08-22T09:50:47.798Z,250
2016-08-22T09:51:47.828Z,210
2016-08-22T09:52:47.898Z,295
2016-08-22T09:53:47.888Z,270
2016-08-22T09:55:47.960Z,230
2016-08-22T09:57:17.833Z,245
2016-08-22T09:57:48.002Z,325
2016-08-22T09:58:48.092Z,245
2016-08-22T09:59:48.072Z,380
2016-08-22T10:01:03.021Z,250
2016-08-22T10:02:03.060Z,210
2016-08-22T10:02:48.169Z,185
2016-08-22T10:03:48.192Z,185
2016-08-22T10:04:48.241Z,335
2016-08-22T10:05:48.255Z,355
2016-08-22T10:06:48.280Z,355
2016-08-22T10:07:48.325Z,360
2016-08-22T10:08:48.349Z,370
2016-08-22T10:09:48.377Z,370
2016-08-22T10:10:48.433Z,370
2016-08-22T10:11:48.444Z,365
2016-08-22T10:13:03.399Z,360
2016-08-22T10:13:48.512Z,360
2016-08-22T10:14:48.545Z,370
2016-08-22T10:16:03.495Z,365
2016-08-22T10:16:48.611Z,200
2016-08-22T10:17:48.638Z,200
2016-08-22T10:18:48.673Z,200
2016-08-22T10:19:48.703Z,215
2016-08-22T10:20:48.732Z,275
2016-08-22T10:21:48.771Z,340
2016-08-22T10:22:48.804Z,315
2016-08-22T10:23:48.823Z,180
2016-08-22T10:24:48.865Z,180
2016-08-22T10:25:48.895Z,170
2016-08-22T10:26:48.920Z,195
2016-08-22T10:28:03.890Z,240
2016-08-22T10:29:03.918Z,305
2016-08-22T10:30:03.946Z,190
2016-08-22T10:30:49.055Z,150
2016-08-22T10:32:04.011Z,150
2016-08-22T10:33:04.032Z,155
2016-08-22T10:33:49.152Z,210
2016-08-22T10:34:49.178Z,310
2016-08-22T10:35:49.219Z,210
2016-08-22T10:36:49.245Z,305
2016-08-22T10:37:49.277Z,215
2016-08-22T10:38:49.303Z,210
2016-08-22T10:39:49.341Z,165
2016-08-22T10:40:49.371Z,195
2016-08-22T10:41:49.395Z,185
2016-08-22T10:42:49.429Z,315
2016-08-22T10:43:49.462Z,310
2016-08-22T10:44:49.493Z,310
2016-08-22T10:45:49.525Z,310
2016-08-22T10:48:04.557Z,190
2016-08-22T10:48:49.632Z,175
2016-08-22T10:49:49.651Z,165
2016-08-22T10:50:49.700Z,285
2016-08-22T10:51:49.707Z,290
2016-08-22T10:52:49.785Z,290
2016-08-22T10:53:49.775Z,280
2016-08-22T10:54:49.796Z,285
2016-08-22T10:55:49.825Z,275
2016-08-22T10:56:49.919Z,275
2016-08-22T10:57:49.890Z,200
2016-08-22T10:59:04.858Z,155
2016-08-22T10:59:50.014Z,260
2016-08-22T11:00:49.993Z,255
2016-08-22T11:01:50.014Z,250
2016-08-22T11:02:50.042Z,245
2016-08-22T11:04:05.002Z,240
2016-08-22T11:04:50.121Z,240
2016-08-22T11:05:50.152Z,250
2016-08-22T11:06:50.178Z,170
2016-08-22T11:07:50.203Z,160
2016-08-22T11:08:50.232Z,165
2016-08-22T11:09:50.259Z,165
2016-08-22T11:10:50.303Z,195
2016-08-22T11:12:51.062Z,235
2016-08-22T11:13:50.393Z,255
2016-08-22T11:14:50.414Z,245
2016-08-22T11:15:50.446Z,240
2016-08-22T11:17:05.409Z,240
2016-08-22T11:17:50.501Z,240
2016-08-22T11:19:05.472Z,160
2016-08-22T11:20:05.495Z,155
2016-08-22T11:21:20.448Z,175
2016-08-22T11:21:50.639Z,215
2016-08-22T11:22:50.660Z,205
2016-08-22T11:23:50.685Z,140
2016-08-22T11:24:50.727Z,135
2016-08-22T11:26:05.676Z,155
2016-08-22T11:26:50.789Z,165
2016-08-22T11:28:05.739Z,200
2016-08-22T11:28:50.848Z,205
2016-08-22T11:29:50.875Z,210
2016-08-22T11:30:50.906Z,210
2016-08-22T11:31:50.935Z,150
2016-08-22T11:32:50.982Z,150
2016-08-22T11:33:51.696Z,145
2016-08-22T11:34:51.032Z,145
2016-08-22T11:36:05.977Z,205
2016-08-22T11:37:06.701Z,145
2016-08-22T11:37:51.116Z,145
2016-08-22T11:38:51.145Z,195
2016-08-22T11:39:51.183Z,200
2016-08-22T11:40:51.209Z,205
2016-08-22T11:41:51.236Z,210
2016-08-22T11:42:51.260Z,215
2016-08-22T11:44:06.217Z,180
2016-08-22T11:44:51.330Z,210
2016-08-22T11:45:51.358Z,215
2016-08-22T11:47:06.309Z,215
2016-08-22T11:48:21.271Z,210
2016-08-22T11:49:06.377Z,210
2016-08-22T11:50:06.398Z,195
2016-08-22T11:51:06.438Z,195
2016-08-22T11:51:51.554Z,185
2016-08-22T11:53:06.491Z,180
2016-08-22T11:53:51.606Z,180
2016-08-22T11:55:06.557Z,185
2016-08-22T11:55:51.656Z,195
2016-08-22T11:56:51.739Z,145
2016-08-22T11:57:52.423Z,200
2016-08-22T11:58:51.750Z,145
2016-08-22T12:00:06.711Z,145
2016-08-22T12:01:06.789Z,185
2016-08-22T12:01:51.854Z,180
2016-08-22T12:03:21.724Z,155
2016-08-22T12:04:06.825Z,190
2016-08-22T12:04:51.944Z,210
2016-08-22T12:05:52.217Z,145
2016-08-22T12:07:07.621Z,145
2016-08-22T12:07:52.021Z,180
2016-08-22T12:08:52.056Z,155
2016-08-22T12:09:52.083Z,205
2016-08-22T12:11:07.056Z,210
2016-08-22T12:11:52.144Z,205
2016-08-22T12:12:52.175Z,210
2016-08-22T12:13:52.211Z,210
2016-08-22T12:14:52.236Z,205
2016-08-22T12:15:52.271Z,200
2016-08-22T12:16:52.294Z,200
2016-08-22T12:17:53.024Z,195
2016-08-22T12:18:52.360Z,190
2016-08-22T12:19:52.399Z,190
2016-08-22T12:20:52.427Z,190
2016-08-22T12:21:52.453Z,185
2016-08-22T12:23:07.399Z,185
2016-08-22T12:23:52.515Z,185
2016-08-22T12:24:52.539Z,180
2016-08-22T12:25:52.571Z,170
2016-08-22T12:26:52.597Z,185
2016-08-22T12:27:52.642Z,190
2016-08-22T12:29:07.583Z,195
2016-08-22T12:29:52.689Z,195
2016-08-22T12:31:52.752Z,200
2016-08-22T12:32:52.788Z,195
2016-08-22T12:33:53.010Z,200
2016-08-22T12:34:52.850Z,200
2016-08-22T12:36:07.797Z,205
2016-08-22T12:36:52.905Z,210
2016-08-22T12:37:53.342Z,205
2016-08-22T12:39:07.897Z,200
2016-08-22T12:39:52.996Z,195
2016-08-22T12:40:53.027Z,200
2016-08-22T12:41:53.063Z,200
2016-08-22T12:42:53.092Z,205
2016-08-22T12:43:53.108Z,195
2016-08-22T12:44:53.149Z,150
2016-08-22T12:45:53.177Z,145
2016-08-22T12:48:08.154Z,205
2016-08-22T12:48:54.673Z,195
2016-08-22T12:49:54.017Z,205
2016-08-22T12:50:53.327Z,170
2016-08-22T12:52:23.206Z,145
2016-08-22T12:52:53.378Z,150
2016-08-22T12:53:53.424Z,190
2016-08-22T12:55:08.372Z,165
2016-08-22T12:55:53.474Z,165
2016-08-22T12:57:08.431Z,170
2016-08-22T12:58:08.514Z,220
2016-08-22T12:59:08.489Z,190
2016-08-22T12:59:53.595Z,185
2016-08-22T13:01:08.547Z,190
2016-08-22T13:01:53.701Z,180
2016-08-22T13:03:53.719Z,215
2016-08-22T13:04:53.738Z,145
2016-08-22T13:05:53.781Z,145
2016-08-22T13:07:08.738Z,200
2016-08-22T13:07:53.839Z,140
2016-08-22T13:08:54.567Z,200
2016-08-22T13:09:53.909Z,200
2016-08-22T13:11:08.849Z,165
2016-08-22T13:11:53.950Z,135
2016-08-22T13:12:53.993Z,145
2016-08-22T13:14:08.957Z,205
2016-08-22T13:14:54.745Z,205
2016-08-22T13:15:54.079Z,200
2016-08-22T13:16:54.101Z,205
2016-08-22T13:18:09.061Z,210
2016-08-22T13:18:54.173Z,210
2016-08-22T13:19:54.194Z,140
2016-08-22T13:20:54.939Z,205
2016-08-22T13:21:54.252Z,195
2016-08-22T13:22:54.290Z,200
2016-08-22T13:24:54.344Z,200
2016-08-22T13:26:09.305Z,195
2016-08-22T13:26:54.409Z,195
2016-08-22T13:27:54.441Z,190
2016-08-22T13:28:54.468Z,195
2016-08-22T13:29:54.505Z,200
2016-08-22T13:30:54.527Z,200
2016-08-22T13:31:54.550Z,200
2016-08-22T13:32:54.599Z,175
2016-08-22T13:33:54.615Z,180
2016-08-22T13:34:54.658Z,160
2016-08-22T13:35:54.684Z,200
2016-08-22T13:36:54.707Z,200
2016-08-22T13:37:54.737Z,205
2016-08-22T13:39:24.621Z,150
2016-08-22T13:39:54.819Z,160
2016-08-22T13:40:54.833Z,205
2016-08-22T13:41:54.860Z,195
2016-08-22T13:42:54.892Z,150
2016-08-22T13:43:54.922Z,170
2016-08-22T13:44:54.956Z,145
2016-08-22T13:45:54.991Z,150
2016-08-22T13:46:55.013Z,160
2016-08-22T13:47:55.042Z,160
2016-08-22T13:48:55.064Z,180
2016-08-22T13:49:55.097Z,155
2016-08-22T13:50:55.123Z,165
2016-08-22T13:51:55.155Z,190
2016-08-22T13:52:55.906Z,185
2016-08-22T13:53:55.224Z,190
2016-08-22T13:54:55.254Z,185
2016-08-22T13:55:55.283Z,185
2016-08-22T13:57:10.236Z,185
2016-08-22T13:58:10.269Z,180
2016-08-22T13:58:55.373Z,180
2016-08-22T13:59:55.451Z,180
2016-08-22T14:01:55.459Z,180
2016-08-22T14:02:55.494Z,170
2016-08-22T14:03:55.563Z,170
2016-08-22T14:04:55.556Z,165
2016-08-22T14:05:55.595Z,165
2016-08-22T14:06:55.616Z,165
2016-08-22T14:07:55.688Z,165
2016-08-22T14:09:10.598Z,165
2016-08-22T14:10:10.623Z,165
2016-08-22T14:10:55.739Z,165
2016-08-22T14:11:55.760Z,165
2016-08-22T14:12:55.793Z,165
2016-08-22T14:14:25.671Z,165
2016-08-22T14:14:55.853Z,165
2016-08-22T14:15:55.890Z,165
2016-08-22T14:16:55.915Z,170
2016-08-22T14:17:55.951Z,165
2016-08-22T14:18:55.976Z,165
2016-08-22T14:19:56.000Z,165
2016-08-22T14:21:56.085Z,165
2016-08-22T14:22:56.114Z,170
2016-08-22T14:24:56.154Z,165
2016-08-22T14:26:26.036Z,100
2016-08-22T14:26:56.222Z,100
2016-08-22T14:27:56.695Z,100
2016-08-22T14:28:56.279Z,100
2016-08-22T14:30:56.330Z,105
2016-08-22T14:31:56.361Z,105
2016-08-22T14:32:56.389Z,165
2016-08-22T14:34:56.451Z,170
2016-08-22T14:37:11.434Z,160
2016-08-22T14:37:56.544Z,165
2016-08-22T14:38:56.572Z,165
2016-08-22T14:39:56.599Z,160
2016-08-22T14:40:56.631Z,160
2016-08-22T14:41:56.729Z,105
2016-08-22T14:42:56.692Z,160
2016-08-22T14:44:11.645Z,165
2016-08-22T14:44:56.755Z,160
2016-08-22T14:46:56.828Z,165
2016-08-22T14:47:56.835Z,165
2016-08-22T14:48:56.876Z,165
2016-08-22T14:49:56.908Z,165
2016-08-22T14:50:56.931Z,170
2016-08-22T14:51:56.967Z,170
2016-08-22T14:52:56.993Z,175
2016-08-22T14:53:57.020Z,175
2016-08-22T14:54:57.045Z,175
2016-08-22T14:55:57.086Z,170